createdAt,value
2019-01-08T00:01:56.967Z,18.30
2019-01-08T00:04:26.086Z,16.83
2019-01-08T00:06:54.922Z,16.27
2019-01-08T00:09:24.370Z,17.80
2019-01-08T00:11:53.267Z,17.13
2019-01-08T00:14:22.907Z,15.67
2019-01-08T00:16:52.031Z,15.87
2019-01-08T00:19:21.374Z,16.60
2019-01-08T00:21:50.522Z,15.80
2019-01-08T00:24:19.891Z,15.87
2019-01-08T00:26:48.711Z,16.87
2019-01-08T00:29:18.001Z,17.20
2019-01-08T00:31:47.024Z,16.10
2019-01-08T00:34:16.211Z,15.90
2019-01-08T00:36:45.786Z,16.57
2019-01-08T00:39:14.922Z,16.20
2019-01-08T00:41:44.188Z,15.20
2019-01-08T00:44:13.418Z,14.97
2019-01-08T00:46:42.890Z,15.87
2019-01-08T00:49:12.062Z,17.07
2019-01-08T00:51:41.463Z,15.80
2019-01-08T00:54:10.584Z,15.10
2019-01-08T00:56:39.791Z,15.77
2019-01-08T00:59:09.443Z,14.67
2019-01-08T01:01:38.429Z,14.00
2019-01-08T01:04:07.298Z,13.57
2019-01-08T01:06:36.534Z,14.73
2019-01-08T01:09:07.717Z,14.03
2019-01-08T01:11:36.579Z,12.97
2019-01-08T01:14:06.123Z,13.70
2019-01-08T01:16:35.623Z,12.80
2019-01-08T01:19:05.447Z,14.23
2019-01-08T01:21:34.695Z,13.80
2019-01-08T01:24:03.816Z,14.10
2019-01-08T01:26:33.404Z,13.00
2019-01-08T01:29:02.622Z,12.03
2019-01-08T01:31:31.851Z,13.87
2019-01-08T01:34:00.914Z,12.73
2019-01-08T01:36:29.802Z,14.00
2019-01-08T01:38:58.799Z,14.53
2019-01-08T01:41:27.975Z,14.07
2019-01-08T01:43:57.291Z,13.23
2019-01-08T01:46:26.661Z,12.27
2019-01-08T01:48:56.454Z,13.20
2019-01-08T01:51:25.913Z,12.63
2019-01-08T01:53:55.343Z,13.30
2019-01-08T01:56:25.359Z,13.20
2019-01-08T01:58:55.867Z,12.40
2019-01-08T02:01:25.538Z,13.17
2019-01-08T02:03:54.930Z,11.97
2019-01-08T02:06:24.676Z,12.37
2019-01-08T02:08:54.059Z,12.47
2019-01-08T02:11:23.562Z,11.37
2019-01-08T02:13:52.964Z,11.03
2019-01-08T02:16:22.947Z,12.13
2019-01-08T02:18:52.419Z,11.23
2019-01-08T02:21:22.155Z,11.77
2019-01-08T02:23:51.538Z,10.50
2019-01-08T02:26:20.933Z,11.03
2019-01-08T02:28:50.354Z,9.83
2019-01-08T02:31:19.635Z,11.10
2019-01-08T02:33:49.357Z,9.90
2019-01-08T02:36:18.753Z,10.53
2019-01-08T02:38:47.860Z,9.87
2019-01-08T02:41:17.402Z,8.47
2019-01-08T02:43:46.500Z,9.93
2019-01-08T02:46:16.057Z,9.07
2019-01-08T02:48:45.511Z,8.80
2019-01-08T02:51:14.904Z,8.27
2019-01-08T02:53:44.343Z,8.80
2019-01-08T02:56:13.983Z,7.53
2019-01-08T02:58:43.383Z,8.67
2019-01-08T03:01:12.955Z,8.43
2019-01-08T03:03:41.869Z,7.83
2019-01-08T03:06:11.648Z,7.37
2019-01-08T03:08:40.832Z,7.40
2019-01-08T03:11:10.237Z,7.10
2019-01-08T03:13:39.602Z,8.10
2019-01-08T03:16:09.335Z,7.47
2019-01-08T03:18:39.016Z,7.53
2019-01-08T03:21:08.775Z,8.00
2019-01-08T03:23:38.534Z,7.13
2019-01-08T03:26:07.714Z,7.40
2019-01-08T03:28:37.427Z,7.27
2019-01-08T03:31:06.679Z,7.40
2019-01-08T03:33:36.366Z,7.37
2019-01-08T03:36:05.252Z,6.70
2019-01-08T03:38:34.937Z,6.17
2019-01-08T03:41:04.202Z,6.53
2019-01-08T03:43:33.326Z,6.50
2019-01-08T03:46:02.770Z,5.90
2019-01-08T03:48:32.214Z,5.87
2019-01-08T03:51:01.823Z,6.07
2019-01-08T03:53:33.191Z,4.53
2019-01-08T03:56:02.789Z,5.13
2019-01-08T03:58:32.386Z,5.70
2019-01-08T04:01:01.481Z,5.00
2019-01-08T04:03:31.439Z,5.07
2019-01-08T04:06:00.623Z,4.70
2019-01-08T04:08:29.994Z,5.10
2019-01-08T04:10:59.415Z,4.33
2019-01-08T04:13:29.234Z,4.00
2019-01-08T04:16:00.237Z,4.43
2019-01-08T04:18:30.432Z,4.07
2019-01-08T04:21:00.043Z,3.60
2019-01-08T04:23:29.702Z,4.67
2019-01-08T04:25:58.882Z,4.37
2019-01-08T04:28:28.339Z,4.13
2019-01-08T04:30:57.479Z,3.37
2019-01-08T04:33:26.879Z,3.87
2019-01-08T04:35:55.966Z,3.60
2019-01-08T04:38:25.347Z,3.33
2019-01-08T04:40:54.433Z,3.80
2019-01-08T04:43:23.802Z,3.20
2019-01-08T04:45:52.905Z,3.67
2019-01-08T04:48:22.274Z,3.73
2019-01-08T04:50:51.638Z,3.10
2019-01-08T04:53:21.734Z,3.10
2019-01-08T04:55:51.007Z,3.50
2019-01-08T04:58:20.459Z,3.00
2019-01-08T05:00:49.813Z,3.03
2019-01-08T05:03:19.450Z,3.03
2019-01-08T05:05:48.611Z,2.87
2019-01-08T05:08:17.753Z,2.77
2019-01-08T05:10:47.092Z,2.47
2019-01-08T05:13:16.213Z,2.50
2019-01-08T05:15:46.133Z,2.70
2019-01-08T05:18:15.242Z,2.67
2019-01-08T05:20:44.683Z,2.90
2019-01-08T05:23:14.545Z,2.63
2019-01-08T05:25:43.916Z,2.90
2019-01-08T05:28:13.543Z,2.50
2019-01-08T05:30:42.956Z,3.03
2019-01-08T05:33:12.593Z,2.70
2019-01-08T05:35:42.239Z,2.80
2019-01-08T05:38:11.616Z,2.97
2019-01-08T05:40:41.068Z,3.30
2019-01-08T05:43:11.911Z,2.70
2019-01-08T05:45:40.706Z,3.00
2019-01-08T05:48:10.357Z,3.50
2019-01-08T05:50:41.606Z,3.00
2019-01-08T05:53:11.447Z,3.63
2019-01-08T05:55:40.591Z,3.00
2019-01-08T05:58:10.187Z,3.53
2019-01-08T06:00:39.548Z,3.87
2019-01-08T06:03:09.389Z,3.60
2019-01-08T06:05:39.259Z,4.30
2019-01-08T06:08:08.591Z,3.40
2019-01-08T06:10:37.939Z,3.03
2019-01-08T06:13:07.550Z,3.90
2019-01-08T06:15:37.426Z,3.40
2019-01-08T06:18:06.743Z,3.43
2019-01-08T06:20:36.119Z,3.63
2019-01-08T06:23:05.832Z,3.30
2019-01-08T06:25:35.519Z,3.17
2019-01-08T06:28:04.663Z,2.50
2019-01-08T06:30:34.040Z,3.27
2019-01-08T06:33:03.456Z,3.63
2019-01-08T06:35:32.655Z,2.80
2019-01-08T06:38:02.248Z,2.90
2019-01-08T06:40:32.211Z,3.17
2019-01-08T06:43:01.940Z,3.07
2019-01-08T06:45:31.383Z,2.83
2019-01-08T06:48:00.728Z,3.30
2019-01-08T06:50:30.350Z,3.37
2019-01-08T06:53:00.099Z,2.90
2019-01-08T06:55:29.711Z,3.70
2019-01-08T06:57:59.061Z,3.20
2019-01-08T07:00:33.209Z,3.30
2019-01-08T07:03:00.076Z,3.67
2019-01-08T07:05:29.776Z,3.37
2019-01-08T07:07:59.692Z,3.70
2019-01-08T07:10:29.070Z,3.80
2019-01-08T07:12:58.676Z,3.77
2019-01-08T07:15:28.286Z,3.30
2019-01-08T07:17:57.663Z,3.60
2019-01-08T07:20:27.124Z,3.90
2019-01-08T07:22:56.731Z,3.90
2019-01-08T07:25:25.856Z,3.90
2019-01-08T07:27:55.260Z,4.03
2019-01-08T07:30:24.379Z,3.90
2019-01-08T07:32:53.744Z,4.70
2019-01-08T07:35:22.862Z,3.70
2019-01-08T07:37:51.950Z,3.77
2019-01-08T07:40:21.070Z,3.67
2019-01-08T07:42:50.668Z,3.63
2019-01-08T07:45:20.027Z,4.27
2019-01-08T07:47:49.689Z,3.57
2019-01-08T07:50:19.154Z,3.50
2019-01-08T07:52:48.882Z,3.80
2019-01-08T07:55:18.331Z,3.97
2019-01-08T07:57:47.430Z,4.13
2019-01-08T08:00:17.127Z,3.50
2019-01-08T08:02:46.735Z,3.70
2019-01-08T08:05:16.683Z,3.40
2019-01-08T08:07:46.376Z,3.80
2019-01-08T08:10:16.323Z,3.23
2019-01-08T08:12:45.687Z,3.77
2019-01-08T08:15:15.316Z,3.43
2019-01-08T08:17:44.979Z,3.67
2019-01-08T08:20:14.075Z,3.83
2019-01-08T08:22:43.449Z,4.00
2019-01-08T08:25:13.307Z,2.87
2019-01-08T08:27:42.928Z,3.30
2019-01-08T08:30:12.279Z,3.00
2019-01-08T08:32:41.908Z,3.17
2019-01-08T08:35:11.059Z,3.17
2019-01-08T08:37:40.438Z,3.37
2019-01-08T08:40:09.911Z,3.10
2019-01-08T08:42:39.535Z,3.27
2019-01-08T08:45:09.212Z,3.50
2019-01-08T08:47:38.402Z,3.10
2019-01-08T08:50:07.374Z,2.80
2019-01-08T08:52:37.118Z,3.50
2019-01-08T08:55:06.676Z,3.53
2019-01-08T08:57:35.794Z,3.27
2019-01-08T09:00:05.415Z,3.97
2019-01-08T09:02:34.870Z,3.60
2019-01-08T09:05:04.416Z,3.30
2019-01-08T09:07:33.775Z,3.30
2019-01-08T09:10:03.127Z,3.80
2019-01-08T09:12:32.243Z,3.13
2019-01-08T09:15:01.582Z,2.70
2019-01-08T09:17:32.079Z,3.20
2019-01-08T09:20:01.528Z,2.90
2019-01-08T09:22:30.642Z,3.00
2019-01-08T09:24:59.443Z,3.30
2019-01-08T09:27:29.108Z,2.93
2019-01-08T09:29:58.205Z,3.33
2019-01-08T09:32:28.063Z,3.17
2019-01-08T09:34:58.012Z,3.47
2019-01-08T09:37:27.394Z,2.80
2019-01-08T09:39:57.075Z,2.97
2019-01-08T09:42:26.451Z,2.83
2019-01-08T09:44:56.399Z,3.20
2019-01-08T09:47:25.783Z,2.73
2019-01-08T09:49:54.892Z,3.10
2019-01-08T09:52:24.595Z,3.60
2019-01-08T09:54:54.264Z,3.03
2019-01-08T09:57:23.450Z,2.57
2019-01-08T09:59:53.074Z,3.23
2019-01-08T10:02:22.779Z,2.60
2019-01-08T10:04:52.183Z,2.00
2019-01-08T10:07:21.815Z,2.70
2019-01-08T10:09:51.483Z,2.70
2019-01-08T10:12:20.867Z,2.13
2019-01-08T10:14:50.539Z,2.50
2019-01-08T10:17:19.900Z,3.70
2019-01-08T10:19:49.500Z,2.70
2019-01-08T10:22:18.626Z,2.90
2019-01-08T10:24:48.013Z,2.77
2019-01-08T10:27:17.379Z,2.50
2019-01-08T10:29:46.959Z,2.77
2019-01-08T10:32:16.595Z,2.67
2019-01-08T10:34:45.958Z,2.97
2019-01-08T10:37:15.578Z,2.70
2019-01-08T10:39:44.747Z,2.87
2019-01-08T10:42:13.867Z,3.03
2019-01-08T10:44:43.718Z,2.80
2019-01-08T10:47:12.903Z,2.30
2019-01-08T10:49:42.303Z,2.67
2019-01-08T10:52:11.675Z,2.80
2019-01-08T10:54:41.095Z,2.43
2019-01-08T10:57:10.208Z,2.80
2019-01-08T10:59:39.596Z,2.80
2019-01-08T11:02:09.272Z,3.10
2019-01-08T11:04:38.951Z,3.77
2019-01-08T11:07:08.242Z,2.50
2019-01-08T11:09:37.355Z,3.50
2019-01-08T11:12:07.471Z,3.07
2019-01-08T11:14:36.603Z,3.13
2019-01-08T11:17:05.854Z,2.77
2019-01-08T11:19:35.491Z,3.20
2019-01-08T11:22:05.223Z,2.97
2019-01-08T11:24:34.676Z,3.20
2019-01-08T11:27:03.915Z,2.93
2019-01-08T11:29:33.275Z,2.90
2019-01-08T11:32:02.957Z,2.20
2019-01-08T11:34:31.864Z,2.53
2019-01-08T11:37:01.055Z,2.37
2019-01-08T11:39:30.177Z,2.33
2019-01-08T11:41:59.130Z,3.03
2019-01-08T11:44:28.250Z,3.10
2019-01-08T11:46:57.603Z,2.50
2019-01-08T11:49:27.247Z,3.03
2019-01-08T11:51:56.393Z,2.47
2019-01-08T11:54:25.940Z,2.73
2019-01-08T11:56:55.305Z,3.20
2019-01-08T11:59:24.964Z,2.80
2019-01-08T12:01:57.550Z,3.03
2019-01-08T12:04:25.969Z,3.40
2019-01-08T12:06:55.387Z,3.53
2019-01-08T12:09:24.496Z,3.00
2019-01-08T12:11:53.859Z,3.00
2019-01-08T12:14:22.990Z,3.47
2019-01-08T12:16:52.327Z,3.13
2019-01-08T12:19:21.702Z,3.17
2019-01-08T12:21:51.055Z,2.90
2019-01-08T12:24:21.019Z,3.17
2019-01-08T12:26:50.115Z,3.10
2019-01-08T12:29:19.307Z,3.30
2019-01-08T12:31:48.679Z,2.57
2019-01-08T12:34:18.056Z,2.90
2019-01-08T12:36:47.588Z,2.93
2019-01-08T12:39:17.306Z,3.07
2019-01-08T12:41:46.483Z,2.60
2019-01-08T12:44:15.608Z,2.93
2019-01-08T12:46:45.296Z,2.50
2019-01-08T12:49:14.834Z,2.53
2019-01-08T12:51:43.923Z,2.43
2019-01-08T12:54:13.631Z,2.70
2019-01-08T12:56:43.129Z,2.10
2019-01-08T12:59:12.577Z,2.20
2019-01-08T13:01:42.202Z,2.43
2019-01-08T13:04:11.476Z,2.63
2019-01-08T13:06:40.891Z,2.50
2019-01-08T13:09:10.111Z,2.00
2019-01-08T13:11:39.761Z,2.40
2019-01-08T13:14:09.394Z,2.30
2019-01-08T13:16:38.767Z,1.70
2019-01-08T13:19:08.420Z,2.27
2019-01-08T13:21:37.600Z,2.23
2019-01-08T13:24:07.299Z,1.83
2019-01-08T13:26:37.026Z,2.13
2019-01-08T13:29:06.279Z,2.40
2019-01-08T13:31:36.015Z,2.20
2019-01-08T13:34:04.984Z,1.77
2019-01-08T13:36:34.224Z,1.60
2019-01-08T13:39:04.047Z,2.30
2019-01-08T13:41:33.799Z,1.60
2019-01-08T13:44:02.879Z,1.70
2019-01-08T13:46:32.403Z,1.83
2019-01-08T13:49:01.467Z,1.80
2019-01-08T13:51:31.127Z,2.20
2019-01-08T13:54:00.730Z,1.97
2019-01-08T13:56:29.867Z,1.70
2019-01-08T13:58:59.230Z,1.73
2019-01-08T14:01:28.723Z,1.90
2019-01-08T14:03:58.315Z,1.97
2019-01-08T14:06:27.775Z,2.03
2019-01-08T14:08:56.859Z,2.30
2019-01-08T14:11:26.399Z,1.63
2019-01-08T14:13:56.003Z,1.80
2019-01-08T14:16:25.482Z,1.53
2019-01-08T14:18:55.069Z,1.70
2019-01-08T14:21:24.431Z,1.87
2019-01-08T14:23:53.520Z,1.80
2019-01-08T14:26:23.201Z,1.73
2019-01-08T14:28:52.279Z,1.27
2019-01-08T14:31:21.920Z,1.57
2019-01-08T14:33:51.338Z,1.63
2019-01-08T14:36:21.039Z,2.07
2019-01-08T14:38:50.463Z,1.70
2019-01-08T14:41:19.603Z,2.40
2019-01-08T14:43:48.691Z,1.77
2019-01-08T14:46:18.155Z,1.50
2019-01-08T14:48:48.015Z,2.07
2019-01-08T14:51:17.299Z,1.67
2019-01-08T14:53:46.397Z,2.43
2019-01-08T14:56:15.275Z,2.00
2019-01-08T14:58:44.704Z,2.30
2019-01-08T15:01:13.815Z,1.87
2019-01-08T15:03:43.208Z,2.43
2019-01-08T15:06:12.487Z,1.70
2019-01-08T15:08:42.167Z,2.47
2019-01-08T15:11:11.355Z,1.97
2019-01-08T15:13:43.579Z,2.10
2019-01-08T15:16:12.947Z,1.93
2019-01-08T15:18:43.013Z,2.20
2019-01-08T15:21:12.318Z,2.10
2019-01-08T15:23:42.286Z,2.00
2019-01-08T15:26:11.814Z,1.80
2019-01-08T15:28:40.688Z,1.87
2019-01-08T15:31:10.104Z,2.00
2019-01-08T15:33:39.699Z,1.37
2019-01-08T15:36:09.135Z,1.97
2019-01-08T15:38:37.987Z,1.87
2019-01-08T15:41:07.982Z,1.87
2019-01-08T15:43:37.401Z,1.70
2019-01-08T15:46:07.047Z,1.70
2019-01-08T15:48:37.200Z,1.60
2019-01-08T15:51:06.907Z,2.03
2019-01-08T15:53:36.252Z,1.70
2019-01-08T15:56:05.603Z,1.80
2019-01-08T17:59:59.475Z,3.50
2019-01-08T18:02:29.031Z,2.67
2019-01-08T18:04:58.620Z,2.80
2019-01-08T18:07:27.570Z,2.97
2019-01-08T18:09:56.508Z,3.43
2019-01-08T18:12:25.744Z,2.83
2019-01-08T18:14:54.960Z,3.20
2019-01-08T18:17:24.888Z,4.53
2019-01-08T18:19:54.163Z,3.77
2019-01-08T18:22:23.364Z,3.27
2019-01-08T18:24:52.785Z,3.83
2019-01-08T18:27:22.447Z,3.67
2019-01-08T18:29:51.980Z,3.73
2019-01-08T18:32:21.675Z,3.20
2019-01-08T18:34:51.612Z,2.60
2019-01-08T18:37:22.103Z,2.87
2019-01-08T18:39:51.607Z,2.70
2019-01-08T18:42:21.165Z,3.00
2019-01-08T18:44:50.386Z,2.77
2019-01-08T18:47:19.563Z,2.33
2019-01-08T18:49:49.827Z,2.63
2019-01-08T18:52:19.573Z,3.00
2019-01-08T18:54:49.124Z,3.17
2019-01-08T18:57:18.696Z,2.90
2019-01-08T18:59:48.016Z,3.00
2019-01-08T19:02:17.829Z,3.00
2019-01-08T19:04:47.412Z,2.93
2019-01-08T19:07:16.888Z,2.90
2019-01-08T19:09:52.129Z,3.07
2019-01-08T19:12:24.399Z,2.40
2019-01-08T19:14:56.261Z,3.10
2019-01-08T19:17:25.605Z,3.17
2019-01-08T19:19:54.888Z,2.80
2019-01-08T19:22:24.287Z,2.97
2019-01-08T19:24:53.712Z,2.90
2019-01-08T19:27:22.896Z,2.87
2019-01-08T19:29:52.627Z,2.70
2019-01-08T19:32:22.538Z,2.70
2019-01-08T19:34:52.248Z,2.40
2019-01-08T19:37:21.406Z,2.40
2019-01-08T19:39:50.248Z,2.50
2019-01-08T19:42:20.267Z,3.27
2019-01-08T19:44:49.880Z,2.67
2019-01-08T19:47:19.369Z,2.33
2019-01-08T19:49:49.024Z,2.40
2019-01-08T19:52:18.314Z,2.63
2019-01-08T19:54:47.930Z,2.50
2019-01-08T19:57:17.659Z,2.50
2019-01-08T19:59:47.135Z,2.60
2019-01-08T20:02:17.715Z,2.33
2019-01-08T20:04:47.052Z,2.30
2019-01-08T20:07:17.194Z,2.23
2019-01-08T20:09:46.740Z,2.37
2019-01-08T20:12:16.039Z,2.70
2019-01-08T20:14:45.957Z,2.13
2019-01-08T20:17:16.189Z,2.43
2019-01-08T20:19:48.871Z,2.20
2019-01-08T20:22:18.567Z,3.33
2019-01-08T20:24:48.012Z,2.00
2019-01-08T20:27:17.382Z,1.97
2019-01-08T20:29:47.564Z,1.93
2019-01-08T20:32:16.947Z,2.23
2019-01-08T20:34:46.147Z,1.90
2019-01-08T20:37:15.355Z,1.90
2019-01-08T20:39:44.964Z,2.17
2019-01-08T20:42:14.684Z,2.20
2019-01-08T20:44:44.126Z,2.13
2019-01-08T20:47:13.501Z,1.80
2019-01-08T20:49:43.118Z,1.97
2019-01-08T20:52:13.217Z,2.50
2019-01-08T20:54:42.651Z,1.57
2019-01-08T20:57:12.151Z,2.00
2019-01-08T20:59:41.581Z,2.67
2019-01-08T21:02:11.054Z,2.20
2019-01-08T21:04:40.295Z,2.27
2019-01-08T21:07:10.654Z,1.90
2019-01-08T21:09:40.372Z,2.00
2019-01-08T21:12:09.738Z,2.60
2019-01-08T21:14:38.862Z,2.77
2019-01-08T21:17:08.219Z,2.87
2019-01-08T21:19:37.616Z,2.40
2019-01-08T21:22:06.787Z,2.67
2019-01-08T21:24:36.532Z,2.10
2019-01-08T21:27:05.870Z,2.40
2019-01-08T21:29:35.530Z,2.30
2019-01-08T21:32:04.712Z,2.70
2019-01-08T21:34:34.810Z,2.63
2019-01-08T21:37:04.034Z,2.23
2019-01-08T21:39:33.686Z,2.63
2019-01-08T21:42:02.826Z,2.80
2019-01-08T21:44:32.310Z,2.70
2019-01-08T21:47:01.460Z,2.07
2019-01-08T21:49:30.717Z,2.70
2019-01-08T21:51:59.888Z,2.67
2019-01-08T21:54:29.271Z,3.10
2019-01-08T21:56:58.391Z,2.77
2019-01-08T21:59:27.863Z,2.47
2019-01-08T22:01:56.983Z,2.60
2019-01-08T22:04:26.620Z,2.70
2019-01-08T22:06:55.804Z,2.67
2019-01-08T22:09:24.941Z,3.03
2019-01-08T22:11:54.407Z,2.90
2019-01-08T22:14:23.811Z,3.00
2019-01-08T22:16:53.074Z,3.20
2019-01-08T22:19:22.463Z,3.20
2019-01-08T22:21:52.071Z,2.80
2019-01-08T22:24:21.471Z,3.20
2019-01-08T22:26:50.582Z,3.17
2019-01-08T22:29:19.469Z,3.03
2019-01-08T22:31:49.155Z,3.10
2019-01-08T22:34:18.547Z,3.20
2019-01-08T22:36:48.434Z,3.03
2019-01-08T22:39:18.248Z,2.93
2019-01-08T22:41:48.015Z,3.23
2019-01-08T22:44:16.919Z,3.57
2019-01-08T22:46:46.871Z,3.23
2019-01-08T22:49:16.179Z,2.57
2019-01-08T22:51:46.124Z,3.37
2019-01-08T22:54:15.699Z,3.07
2019-01-08T22:56:45.167Z,3.07
2019-01-08T22:59:14.731Z,3.40
2019-01-08T23:01:46.027Z,2.97
2019-01-08T23:04:15.894Z,2.80
2019-01-08T23:06:45.464Z,3.10
2019-01-08T23:09:14.803Z,2.90
2019-01-08T23:11:44.014Z,2.33
2019-01-08T23:14:13.370Z,2.80
2019-01-08T23:16:42.988Z,3.00
2019-01-08T23:19:12.821Z,3.30
2019-01-08T23:21:42.976Z,2.50
2019-01-08T23:24:13.139Z,2.73
2019-01-08T23:26:42.905Z,2.50
2019-01-08T23:29:12.461Z,2.43
2019-01-08T23:31:42.575Z,2.90
2019-01-08T23:34:12.187Z,3.00
2019-01-08T23:36:41.961Z,3.90
2019-01-08T23:39:11.422Z,2.67
2019-01-08T23:41:40.946Z,3.03
2019-01-08T23:44:10.542Z,3.30
2019-01-08T23:46:40.354Z,2.70
2019-01-08T23:49:09.889Z,2.80
2019-01-08T23:51:39.789Z,2.80
2019-01-08T23:54:10.051Z,3.33
2019-01-08T23:56:40.029Z,2.50
2019-01-08T23:59:09.483Z,2.47
